Time;durP1;ratioP1;P1;durP2;ratioP2;P2;SDS_P1;SDS_P2;PMS_P1;PMS_P2;Temp;Humidity;BMP_temperature;BMP_pressure;BME280_temperature;BME280_humidity;BME280_pressure;Samples;Min_cycle;Max_cycle;Signal;HPM_P1;HPM_P2
2021/06/05 00:01:39;;;;;;;25.90;17.73;;;20.20;99.90;;;;;;5082420;28;20314;-51
2021/06/05 00:04:06;;;;;;;23.20;18.17;;;20.10;99.90;;;;;;5066782;28;20233;-51
2021/06/05 00:06:33;;;;;;;22.20;17.50;;;20.30;99.90;;;;;;5083123;28;20233;-50
2021/06/05 00:09:01;;;;;;;24.90;17.23;;;20.10;99.90;;;;;;5082886;28;20241;-50
2021/06/05 00:11:29;;;;;;;28.07;19.57;;;20.00;99.90;;;;;;5081277;28;20644;-51
2021/06/05 00:14:01;;;;;;;24.40;18.17;;;19.90;99.90;;;;;;5081504;28;20195;-51
2021/06/05 00:16:35;;;;;;;27.63;18.60;;;19.80;99.90;;;;;;5086022;28;20616;-51
2021/06/05 00:19:04;;;;;;;24.70;19.47;;;20.00;99.90;;;;;;5081012;28;20731;-51
2021/06/05 00:21:31;;;;;;;27.17;19.80;;;20.10;99.90;;;;;;5081137;28;20262;-51
2021/06/05 00:23:58;;;;;;;25.30;18.13;;;20.00;99.90;;;;;;5080910;28;20230;-50
2021/06/05 00:26:25;;;;;;;28.20;20.73;;;19.90;99.90;;;;;;5079663;28;20251;-51
2021/06/05 00:28:52;;;;;;;26.23;19.23;;;20.00;99.90;;;;;;5064549;28;20310;-51
2021/06/05 00:31:20;;;;;;;24.87;19.53;;;20.00;99.90;;;;;;5065737;28;20688;-50
2021/06/05 00:33:47;;;;;;;29.63;21.13;;;20.10;99.90;;;;;;5079991;28;20316;-50
2021/06/05 00:36:14;;;;;;;28.63;20.33;;;20.20;99.90;;;;;;5066389;28;20310;-50
2021/06/05 00:38:41;;;;;;;34.63;26.80;;;20.30;99.90;;;;;;5082732;28;20226;-50
2021/06/05 00:41:11;;;;;;;39.07;29.43;;;20.10;99.90;;;;;;5080286;28;20242;-50
2021/06/05 00:43:42;;;;;;;39.50;29.23;;;19.90;99.90;;;;;;5075415;28;20230;-50
2021/06/05 00:46:09;;;;;;;38.50;30.33;;;20.10;99.90;;;;;;5081349;28;20302;-50
2021/06/05 00:48:37;;;;;;;38.07;29.60;;;20.20;99.90;;;;;;5081583;28;20242;-51
2021/06/05 00:51:05;;;;;;;40.47;31.47;;;20.10;99.90;;;;;;5066284;28;20272;-51
2021/06/05 00:53:33;;;;;;;38.40;31.07;;;20.20;99.90;;;;;;5079010;28;20393;-50
2021/06/05 00:56:03;;;;;;;39.40;31.63;;;20.30;99.90;;;;;;5081406;28;20283;-51
2021/06/05 00:58:31;;;;;;;39.10;31.80;;;20.30;99.90;;;;;;5079234;28;20668;-51
2021/06/05 01:01:09;;;;;;;42.70;32.57;;;20.00;99.90;;;;;;5080362;28;20925;-50
2021/06/05 01:03:37;;;;;;;38.27;32.07;;;19.80;99.90;;;;;;5057153;28;20699;-50
2021/06/05 01:06:19;;;;;;;40.83;33.17;;;20.00;99.90;;;;;;5072853;28;20226;-51
2021/06/05 01:09:08;;;;;;;38.97;32.10;;;20.10;99.90;;;;;;5080225;28;20302;-50
2021/06/05 01:12:06;;;;;;;39.57;31.57;;;20.10;99.90;;;;;;5081288;28;20233;-51
2021/06/05 01:14:51;;;;;;;40.30;31.60;;;20.00;99.90;;;;;;5080742;28;20229;-51
2021/06/05 01:17:36;;;;;;;40.23;31.73;;;20.10;99.90;;;;;;5082790;28;20257;-50
2021/06/05 01:20:17;;;;;;;38.17;30.93;;;20.20;99.90;;;;;;5081178;28;20545;-50
2021/06/05 01:23:11;;;;;;;38.43;31.73;;;20.10;99.90;;;;;;5083879;28;20229;-51
2021/06/05 01:25:47;;;;;;;39.27;32.57;;;20.10;99.90;;;;;;5082326;28;20618;-51
2021/06/05 01:28:25;;;;;;;38.77;31.97;;;20.00;99.90;;;;;;5080933;28;20457;-51
2021/06/05 01:30:55;;;;;;;40.80;33.40;;;19.90;99.90;;;;;;5084483;28;20247;-50
2021/06/05 01:33:26;;;;;;;37.70;32.40;;;19.90;99.90;;;;;;5086554;28;20194;-50
2021/06/05 01:35:53;;;;;;;37.13;30.97;;;20.10;99.90;;;;;;5084047;28;20226;-50
2021/06/05 01:38:23;;;;;;;37.83;31.23;;;19.90;99.90;;;;;;5085214;28;20677;-51
2021/06/05 01:40:51;;;;;;;39.33;33.20;;;19.80;99.90;;;;;;5062573;28;20234;-51
2021/06/05 01:43:23;;;;;;;41.73;32.57;;;19.90;99.90;;;;;;5084876;28;20256;-50
2021/06/05 01:45:51;;;;;;;37.90;30.77;;;19.80;99.90;;;;;;5082044;28;20237;-51
2021/06/05 01:48:18;;;;;;;37.93;30.03;;;19.50;99.90;;;;;;5086022;28;20198;-50
2021/06/05 01:50:45;;;;;;;41.50;31.80;;;19.50;99.90;;;;;;5085193;28;20270;-50
2021/06/05 01:53:25;;;;;;;38.80;31.87;;;19.30;99.90;;;;;;5086627;28;20725;-51
2021/06/05 01:55:54;;;;;;;38.37;30.13;;;19.40;99.90;;;;;;5081087;28;20230;-50
2021/06/05 01:58:28;;;;;;;41.90;33.07;;;19.40;99.90;;;;;;5087704;28;20277;-50
2021/06/05 02:00:57;;;;;;;42.43;32.80;;;19.40;99.90;;;;;;5086855;28;20230;-51
2021/06/05 02:03:24;;;;;;;36.93;30.80;;;19.50;99.90;;;;;;5088773;28;20199;-51
2021/06/05 02:05:52;;;;;;;38.17;30.97;;;19.40;99.90;;;;;;5088654;28;20234;-50
2021/06/05 02:08:23;;;;;;;40.43;32.10;;;19.30;99.90;;;;;;5091487;28;20257;-50
2021/06/05 02:10:55;;;;;;;41.07;30.87;;;19.20;99.90;;;;;;5066015;28;20215;-50
2021/06/05 02:13:27;;;;;;;41.73;33.13;;;19.20;99.90;;;;;;5089068;28;20323;-51
2021/06/05 02:15:59;;;;;;;39.73;32.40;;;19.40;99.90;;;;;;5087643;28;20290;-50
2021/06/05 02:18:30;;;;;;;44.83;33.30;;;19.40;99.90;;;;;;5082795;28;20226;-50
2021/06/05 02:21:07;;;;;;;41.97;33.23;;;19.40;99.90;;;;;;5087720;28;20202;-50
2021/06/05 02:23:54;;;;;;;43.40;34.23;;;19.50;99.90;;;;;;5087228;28;20260;-50
2021/06/05 02:26:23;;;;;;;41.40;32.70;;;19.50;99.90;;;;;;5085658;28;20202;-50
2021/06/05 02:28:57;;;;;;;45.47;32.73;;;19.60;99.90;;;;;;5087680;28;20210;-50
2021/06/05 02:31:26;;;;;;;45.93;35.23;;;19.50;99.90;;;;;;5086876;28;20589;-50
2021/06/05 02:33:54;;;;;;;49.87;36.10;;;19.40;99.90;;;;;;5088988;28;20192;-50
2021/06/05 02:36:21;;;;;;;47.10;34.03;;;19.40;99.90;;;;;;5086114;28;20712;-51
2021/06/05 02:38:49;;;;;;;48.93;36.20;;;19.40;99.90;;;;;;5085724;28;20654;-50
2021/06/05 02:41:20;;;;;;;47.80;35.03;;;19.40;99.90;;;;;;5085419;28;20258;-50
2021/06/05 02:43:53;;;;;;;48.63;35.90;;;19.30;99.90;;;;;;5087567;28;20671;-50
2021/06/05 02:46:25;;;;;;;53.23;37.53;;;19.30;99.90;;;;;;5083774;28;20240;-50
2021/06/05 02:48:55;;;;;;;49.33;36.50;;;19.20;99.90;;;;;;5085746;28;20197;-50
2021/06/05 02:51:26;;;;;;;49.30;36.97;;;19.10;99.90;;;;;;5088220;28;20233;-50
2021/06/05 02:53:52;;;;;;;48.27;36.27;;;19.20;99.90;;;;;;5086549;28;20202;-50
2021/06/05 02:56:21;;;;;;;48.73;37.03;;;19.20;99.90;;;;;;5083987;28;20701;-50
2021/06/05 02:58:49;;;;;;;48.20;36.37;;;19.20;99.90;;;;;;5087463;28;20285;-50
2021/06/05 03:01:16;;;;;;;47.80;37.13;;;19.20;99.90;;;;;;5084859;28;20285;-49
2021/06/05 03:03:43;;;;;;;52.90;37.77;;;19.10;99.90;;;;;;5081065;28;20546;-49
2021/06/05 03:06:11;;;;;;;48.83;37.93;;;19.20;99.90;;;;;;5085773;28;20326;-49
2021/06/05 03:08:40;;;;;;;48.70;36.23;;;19.30;99.90;;;;;;5086494;28;20234;-49
2021/06/05 03:11:11;;;;;;;48.87;36.37;;;19.30;99.90;;;;;;5085992;28;20335;-49
2021/06/05 03:13:38;;;;;;;54.73;38.80;;;19.50;99.90;;;;;;5087027;28;20737;-49
2021/06/05 03:16:06;;;;;;;52.07;37.07;;;19.20;99.90;;;;;;5085948;28;20278;-49
2021/06/05 03:18:35;;;;;;;53.20;37.47;;;19.10;99.90;;;;;;5085820;28;20229;-52
2021/06/05 03:21:03;;;;;;;51.63;38.43;;;18.90;99.90;;;;;;5082770;28;20304;-50
2021/06/05 03:23:33;;;;;;;55.17;38.80;;;18.90;99.90;;;;;;5085772;28;20239;-50
2021/06/05 03:26:01;;;;;;;52.60;38.63;;;19.00;99.90;;;;;;5083458;28;20291;-50
2021/06/05 03:28:30;;;;;;;54.93;38.37;;;18.80;99.90;;;;;;5086565;28;20263;-50
2021/06/05 03:30:57;;;;;;;52.43;37.33;;;18.80;99.90;;;;;;5083903;28;20687;-50
2021/06/05 03:33:25;;;;;;;55.00;39.40;;;18.70;99.90;;;;;;5086791;28;20226;-52
2021/06/05 03:35:58;;;;;;;59.33;39.07;;;18.70;99.90;;;;;;5063508;28;20301;-49
2021/06/05 03:38:26;;;;;;;53.63;38.27;;;18.70;99.90;;;;;;5067224;28;20202;-49
2021/06/05 03:40:54;;;;;;;59.27;40.80;;;18.70;99.90;;;;;;5083144;28;20293;-51
2021/06/05 03:43:22;;;;;;;58.47;40.23;;;18.80;99.90;;;;;;5081436;28;20297;-49
2021/06/05 03:45:49;;;;;;;59.73;39.93;;;19.00;99.90;;;;;;5081827;28;20297;-49
2021/06/05 03:48:17;;;;;;;61.83;40.73;;;18.90;99.90;;;;;;5082867;28;20656;-49
2021/06/05 03:50:47;;;;;;;58.97;39.73;;;18.60;99.90;;;;;;5087338;28;20314;-49
2021/06/05 03:53:15;;;;;;;63.70;42.20;;;18.70;99.90;;;;;;5085201;28;20287;-51
2021/06/05 03:55:43;;;;;;;63.13;40.57;;;18.70;99.90;;;;;;5081357;28;20635;-50
2021/06/05 03:58:11;;;;;;;60.37;40.93;;;18.90;99.90;;;;;;5084464;28;20617;-50
2021/06/05 04:00:41;;;;;;;69.43;41.77;;;18.90;99.90;;;;;;5066101;28;20343;-50
2021/06/05 04:03:09;;;;;;;63.70;39.73;;;18.70;99.90;;;;;;5067041;28;20205;-50
2021/06/05 04:05:37;;;;;;;67.57;42.63;;;18.80;99.90;;;;;;5083690;28;20587;-50
2021/06/05 04:08:06;;;;;;;68.80;39.87;;;18.60;99.90;;;;;;5088712;28;20255;-50
2021/06/05 04:10:34;;;;;;;63.20;40.37;;;18.70;99.90;;;;;;5073173;28;20284;-50
2021/06/05 04:13:01;;;;;;;62.80;37.97;;;18.70;99.90;;;;;;5065489;28;20245;-50
2021/06/05 04:15:29;;;;;;;61.93;37.83;;;18.80;99.90;;;;;;5082324;28;20202;-50
2021/06/05 04:18:09;;;;;;;66.87;39.47;;;18.60;99.90;;;;;;5082927;28;20245;-50
2021/06/05 04:20:38;;;;;;;60.87;38.27;;;18.90;99.90;;;;;;5082489;28;20201;-50
2021/06/05 04:23:07;;;;;;;64.57;38.93;;;18.90;99.90;;;;;;5084807;28;20646;-50
2021/06/05 04:25:35;;;;;;;60.93;35.70;;;18.70;99.90;;;;;;5083221;28;20594;-49
2021/06/05 04:28:03;;;;;;;60.80;36.40;;;18.70;99.90;;;;;;5064262;28;20233;-50
2021/06/05 04:30:31;;;;;;;62.87;37.17;;;18.60;99.90;;;;;;5083014;28;20206;-50
2021/06/05 04:32:58;;;;;;;61.30;35.90;;;18.60;99.90;;;;;;5082490;28;20217;-50
2021/06/05 04:35:27;;;;;;;64.53;38.43;;;18.60;99.90;;;;;;5066453;28;20667;-49
2021/06/05 04:37:55;;;;;;;65.63;37.23;;;18.50;99.90;;;;;;5068637;28;20261;-50
2021/06/05 04:40:23;;;;;;;60.73;36.67;;;18.50;99.90;;;;;;5082750;28;20637;-49
2021/06/05 04:42:51;;;;;;;67.17;37.00;;;18.50;99.90;;;;;;5078420;28;20234;-50
2021/06/05 04:45:18;;;;;;;67.67;36.80;;;18.70;99.90;;;;;;5082538;28;20192;-50
2021/06/05 04:47:45;;;;;;;61.63;36.20;;;18.80;99.90;;;;;;5080146;28;20236;-49
2021/06/05 04:50:17;;;;;;;61.00;35.10;;;18.80;99.90;;;;;;5083338;28;20302;-50
2021/06/05 04:52:44;;;;;;;61.50;34.80;;;18.80;99.90;;;;;;5081243;28;20241;-50
2021/06/05 04:55:12;;;;;;;61.67;35.17;;;18.80;99.90;;;;;;5083155;28;20228;-50
2021/06/05 04:57:55;;;;;;;58.90;35.47;;;18.70;99.90;;;;;;5085855;28;20225;-52
2021/06/05 05:00:32;;;;;;;62.73;36.03;;;18.70;99.90;;;;;;5068140;28;20197;-50
2021/06/05 05:03:00;;;;;;;53.97;33.43;;;18.70;99.90;;;;;;5084588;28;20202;-49
2021/06/05 05:05:28;;;;;;;56.43;34.83;;;18.60;99.90;;;;;;5083633;28;20518;-50
2021/06/05 05:07:56;;;;;;;54.77;34.23;;;18.70;99.90;;;;;;5066594;28;20554;-50
2021/06/05 05:10:32;;;;;;;59.13;34.77;;;18.70;99.90;;;;;;5083257;28;20679;-50
2021/06/05 05:13:00;;;;;;;58.97;32.13;;;18.80;99.90;;;;;;5084513;28;20341;-50
2021/06/05 05:15:28;;;;;;;53.07;32.00;;;18.90;99.90;;;;;;5067869;28;20235;-50
2021/06/05 05:17:55;;;;;;;64.10;36.23;;;18.90;99.90;;;;;;5082587;28;20333;-50
2021/06/05 05:20:33;;;;;;;60.67;34.13;;;18.90;99.90;;;;;;5066031;28;20256;-50
2021/06/05 05:23:02;;;;;;;57.67;32.57;;;18.90;99.90;;;;;;5079049;28;20237;-50
2021/06/05 05:25:29;;;;;;;57.20;33.13;;;18.80;99.90;;;;;;5082648;28;20300;-50
2021/06/05 05:27:57;;;;;;;58.13;32.43;;;18.70;99.90;;;;;;5081191;28;20244;-50
2021/06/05 05:30:27;;;;;;;58.50;32.27;;;18.40;99.90;;;;;;5084067;28;20257;-50
2021/06/05 05:32:55;;;;;;;58.67;30.67;;;18.60;99.90;;;;;;5084804;28;20239;-50
2021/06/05 05:35:23;;;;;;;57.73;33.40;;;18.70;99.90;;;;;;5085118;28;20200;-50
2021/06/05 05:37:50;;;;;;;60.17;33.00;;;18.60;99.90;;;;;;5067715;28;20250;-50
2021/06/05 05:40:19;;;;;;;59.47;32.83;;;18.60;99.90;;;;;;5091740;28;20275;-49
2021/06/05 05:42:46;;;;;;;57.70;32.03;;;18.50;99.90;;;;;;5094850;28;20234;-50
2021/06/05 05:45:13;;;;;;;51.83;30.93;;;18.60;99.90;;;;;;5087356;28;20292;-49
2021/06/05 05:47:40;;;;;;;53.90;29.57;;;18.80;99.90;;;;;;5073002;28;20621;-49
2021/06/05 05:50:10;;;;;;;49.57;28.13;;;18.90;99.90;;;;;;5070324;28;20235;-50
2021/06/05 05:52:37;;;;;;;45.67;26.33;;;18.90;99.90;;;;;;5088993;28;20268;-50
2021/06/05 05:55:06;;;;;;;41.63;25.67;;;18.70;99.90;;;;;;5085909;28;20291;-50
2021/06/05 05:57:34;;;;;;;39.37;23.40;;;18.60;99.90;;;;;;5088495;28;20240;-49
2021/06/05 06:00:01;;;;;;;44.23;24.03;;;18.70;99.90;;;;;;5068452;28;20233;-50
2021/06/05 06:02:28;;;;;;;38.43;23.03;;;18.70;99.90;;;;;;5082739;28;20671;-52
2021/06/05 06:04:55;;;;;;;40.30;23.17;;;18.80;99.90;;;;;;5068872;28;20213;-50
2021/06/05 06:07:22;;;;;;;37.87;22.60;;;18.90;99.90;;;;;;5088140;28;20247;-50
2021/06/05 06:09:48;;;;;;;33.80;21.87;;;18.70;99.90;;;;;;5086883;28;20210;-50
2021/06/05 06:12:16;;;;;;;34.37;22.20;;;18.70;99.90;;;;;;5089636;28;20225;-50
2021/06/05 06:14:43;;;;;;;34.87;20.90;;;18.70;99.90;;;;;;5069054;28;20288;-50
2021/06/05 06:17:10;;;;;;;34.33;21.00;;;18.60;99.90;;;;;;5085966;28;21594;-50
2021/06/05 06:19:38;;;;;;;35.10;20.13;;;18.50;99.90;;;;;;5088030;28;20660;-50
2021/06/05 06:22:05;;;;;;;31.73;19.60;;;18.50;99.90;;;;;;5084549;28;20309;-50
2021/06/05 06:24:32;;;;;;;34.87;20.47;;;18.40;99.90;;;;;;5069253;28;20229;-50
2021/06/05 06:26:59;;;;;;;30.87;19.10;;;18.50;99.90;;;;;;5068102;28;20656;-50
2021/06/05 06:29:33;;;;;;;34.40;19.43;;;18.60;99.90;;;;;;5055865;28;20195;-51
2021/06/05 06:32:00;;;;;;;27.67;17.67;;;18.50;99.90;;;;;;5069955;28;20296;-50
2021/06/05 06:34:29;;;;;;;32.23;18.37;;;18.60;99.90;;;;;;5070100;28;20232;-51
2021/06/05 06:37:02;;;;;;;28.73;17.30;;;18.40;99.90;;;;;;5063598;28;20504;-51
2021/06/05 06:39:30;;;;;;;29.00;17.33;;;18.50;99.90;;;;;;5091585;28;20202;-51
2021/06/05 06:41:57;;;;;;;27.53;16.73;;;18.60;99.90;;;;;;5070553;28;20289;-51
2021/06/05 06:44:25;;;;;;;27.30;16.93;;;18.90;99.90;;;;;;5069401;28;20231;-51
2021/06/05 06:46:51;;;;;;;26.07;16.10;;;18.80;99.90;;;;;;5069075;28;20561;-51
2021/06/05 06:49:21;;;;;;;31.20;18.30;;;18.90;99.90;;;;;;5088750;28;20583;-51
2021/06/05 06:51:49;;;;;;;28.53;18.73;;;19.00;99.90;;;;;;5088141;28;20615;-51
2021/06/05 06:54:16;;;;;;;32.27;19.87;;;19.00;99.90;;;;;;5088226;28;20249;-50
2021/06/05 06:56:43;;;;;;;35.37;21.43;;;19.00;99.90;;;;;;5087365;28;20234;-51
2021/06/05 06:59:10;;;;;;;35.83;20.77;;;18.90;99.90;;;;;;5089927;28;20236;-51
2021/06/05 07:01:37;;;;;;;35.67;21.90;;;19.00;99.90;;;;;;5086909;28;20231;-51
2021/06/05 07:04:05;;;;;;;35.03;20.53;;;19.10;99.90;;;;;;5090464;28;20224;-51
2021/06/05 07:06:32;;;;;;;35.37;21.60;;;18.70;99.90;;;;;;5083441;28;20306;-50
2021/06/05 07:08:59;;;;;;;33.60;21.53;;;18.90;99.90;;;;;;5070616;28;20211;-51
2021/06/05 07:11:32;;;;;;;34.40;20.40;;;19.00;99.90;;;;;;5085278;28;20387;-51
2021/06/05 07:14:01;;;;;;;30.20;19.87;;;19.00;99.90;;;;;;5083934;28;20306;-51
2021/06/05 07:16:31;;;;;;;31.60;20.80;;;19.20;99.90;;;;;;5085255;28;20203;-51
2021/06/05 07:18:58;;;;;;;34.23;20.63;;;18.90;99.90;;;;;;5087293;28;20710;-51
2021/06/05 07:21:25;;;;;;;27.33;19.47;;;19.10;99.90;;;;;;5066852;28;20709;-50
2021/06/05 07:23:52;;;;;;;31.83;19.03;;;19.20;99.90;;;;;;5083624;28;20200;-51
2021/06/05 07:26:23;;;;;;;24.50;16.67;;;19.20;99.90;;;;;;5086556;28;20244;-51
2021/06/05 07:28:52;;;;;;;24.60;17.33;;;18.90;99.90;;;;;;5089247;28;20244;-51
2021/06/05 07:31:26;;;;;;;29.58;19.65;;;19.10;99.90;;;;;;5087029;28;20555;-49
2021/06/05 07:33:54;;;;;;;28.47;17.33;;;19.20;99.90;;;;;;5089026;28;20213;-51
2021/06/05 07:36:29;;;;;;;27.70;17.93;;;19.20;99.90;;;;;;5069895;28;20294;-50
2021/06/05 07:38:56;;;;;;;26.07;17.33;;;19.20;99.90;;;;;;5088360;28;20245;-50
2021/06/05 07:41:24;;;;;;;27.37;17.40;;;19.30;99.90;;;;;;5084716;28;20505;-50
2021/06/05 07:43:50;;;;;;;29.53;18.43;;;19.40;99.90;;;;;;5085605;28;20257;-49
2021/06/05 07:46:17;;;;;;;36.07;21.23;;;19.30;99.90;;;;;;5084072;28;20201;-50
2021/06/05 07:48:44;;;;;;;33.23;20.67;;;19.30;99.90;;;;;;5085623;28;20232;-50
2021/06/05 07:51:12;;;;;;;37.97;21.97;;;19.40;99.90;;;;;;5082058;28;20701;-49
2021/06/05 07:53:38;;;;;;;35.78;25.95;;;19.30;99.90;;;;;;5075942;28;20558;-51
2021/06/05 07:56:05;;;;;;;32.83;22.87;;;19.10;99.90;;;;;;5083252;28;20730;-52
2021/06/05 07:58:32;;;;;;;32.27;21.60;;;19.00;99.90;;;;;;5086640;28;20520;-51
2021/06/05 08:00:59;;;;;;;34.57;21.00;;;19.10;99.90;;;;;;5083343;28;20202;-51
2021/06/05 08:03:26;;;;;;;35.53;22.23;;;19.20;99.90;;;;;;5077223;28;20202;-51
2021/06/05 08:05:53;;;;;;;30.93;19.87;;;19.20;99.90;;;;;;5060045;28;20285;-51
2021/06/05 08:08:20;;;;;;;37.80;21.30;;;19.30;99.90;;;;;;5083403;28;20333;-51
2021/06/05 08:10:47;;;;;;;29.40;20.77;;;19.40;99.90;;;;;;5083657;22;20274;-81
2021/06/05 08:13:15;;;;;;;30.33;19.17;;;19.30;99.90;;;;;;5032573;28;20216;-81
2021/06/05 08:15:46;;;;;;;29.40;20.10;;;19.30;99.90;;;;;;5015790;28;20215;-81
2021/06/05 08:18:14;;;;;;;31.83;20.67;;;19.40;99.90;;;;;;5036860;28;20248;-81
2021/06/05 08:20:50;;;;;;;27.10;19.07;;;19.30;99.90;;;;;;5009863;28;20289;-81
2021/06/05 08:23:19;;;;;;;29.27;19.60;;;19.30;99.90;;;;;;5033149;28;20363;-81
2021/06/05 08:25:48;;;;;;;28.27;19.33;;;19.20;99.90;;;;;;5015447;28;20224;-81
2021/06/05 08:28:17;;;;;;;30.63;18.73;;;19.10;99.90;;;;;;5020988;28;20254;-81
2021/06/05 08:30:46;;;;;;;25.73;18.60;;;19.10;99.90;;;;;;5020491;28;20245;-81
2021/06/05 08:33:14;;;;;;;28.40;19.47;;;19.20;99.90;;;;;;5000870;28;20302;-81
2021/06/05 08:35:42;;;;;;;26.73;18.37;;;19.20;99.90;;;;;;5010623;28;20212;-81
2021/06/05 08:38:11;;;;;;;27.27;18.27;;;19.10;99.90;;;;;;5025428;28;20253;-81
2021/06/05 08:41:04;;;;;;;25.53;17.80;;;19.10;99.90;;;;;;5012963;28;20260;-81
2021/06/05 08:43:50;;;;;;;30.27;19.40;;;19.10;99.90;;;;;;5009574;28;20225;-81
2021/06/05 08:46:25;;;;;;;28.30;17.97;;;19.20;99.90;;;;;;5017178;28;20199;-81
2021/06/05 08:48:53;;;;;;;29.47;18.00;;;19.00;99.90;;;;;;5015133;28;20230;-81
2021/06/05 08:51:41;;;;;;;29.43;19.43;;;18.90;99.90;;;;;;5003068;28;20223;-81
2021/06/05 08:54:28;;;;;;;25.73;17.87;;;18.80;99.90;;;;;;4994916;28;20199;-81
2021/06/05 08:57:00;;;;;;;27.40;17.87;;;19.00;99.90;;;;;;5016390;28;20192;-81
2021/06/05 08:59:27;;;;;;;28.60;17.23;;;19.00;99.90;;;;;;5036104;28;20208;-81
2021/06/05 09:01:56;;;;;;;26.47;18.43;;;18.80;99.90;;;;;;5000288;28;20216;-81
2021/06/05 09:04:24;;;;;;;27.53;16.90;;;18.90;99.90;;;;;;5017617;28;20205;-81
2021/06/05 09:06:56;;;;;;;25.83;16.87;;;18.90;99.90;;;;;;5014439;28;20301;-82
2021/06/05 09:09:31;;;;;;;33.13;19.23;;;19.00;99.90;;;;;;5017594;28;20199;-82
2021/06/05 09:12:00;;;;;;;31.70;20.10;;;19.10;99.90;;;;;;5017790;28;20236;-81
2021/06/05 09:14:27;;;;;;;31.90;20.43;;;19.10;99.90;;;;;;5011005;28;20296;-81
2021/06/05 09:16:55;;;;;;;30.00;20.43;;;19.00;99.90;;;;;;5009132;28;20212;-81
2021/06/05 09:19:32;;;;;;;33.40;21.47;;;18.80;99.90;;;;;;4997015;28;20198;-82
2021/06/05 09:22:05;;;;;;;29.13;20.00;;;18.90;99.90;;;;;;5040218;28;20220;-82
2021/06/05 09:24:38;;;;;;;30.80;19.80;;;18.90;99.90;;;;;;5029403;28;20684;-80
2021/06/05 09:27:13;;;;;;;30.30;19.10;;;18.90;99.90;;;;;;5008867;28;20238;-81
2021/06/05 09:29:54;;;;;;;31.30;18.87;;;18.90;99.90;;;;;;5018685;28;20208;-82
2021/06/05 09:32:26;;;;;;;30.40;19.77;;;18.90;99.90;;;;;;5035879;28;20592;-81
2021/06/05 09:34:57;;;;;;;26.40;18.13;;;18.80;99.90;;;;;;5018226;28;20214;-82
2021/06/05 09:37:41;;;;;;;27.63;18.33;;;18.70;99.90;;;;;;5009977;28;20317;-82
2021/06/05 09:40:08;;;;;;;26.23;17.67;;;18.70;99.90;;;;;;5012748;28;20299;-82
2021/06/05 09:42:41;;;;;;;28.70;18.70;;;18.60;99.90;;;;;;5024452;28;20260;-82
2021/06/05 09:45:34;;;;;;;27.67;17.87;;;18.60;99.90;;;;;;5032005;28;20270;-82
2021/06/05 09:48:27;;;;;;;25.03;18.27;;;18.40;99.90;;;;;;5016175;28;20226;-81
2021/06/05 09:50:57;;;;;;;24.70;18.87;;;18.50;99.90;;;;;;5041200;28;20283;-81
2021/06/05 09:53:32;;;;;;;24.67;17.10;;;18.50;99.90;;;;;;5013501;28;20199;-81
2021/06/05 09:56:02;;;;;;;18.67;15.40;;;18.60;99.90;;;;;;5035702;28;20203;-81
2021/06/05 09:58:36;;;;;;;18.63;15.93;;;18.60;99.90;;;;;;5015000;28;20202;-81
2021/06/05 10:01:21;;;;;;;17.83;14.60;;;18.60;99.90;;;;;;5020326;28;20224;-81
2021/06/05 10:03:57;;;;;;;16.67;14.40;;;18.60;99.90;;;;;;5034843;28;20194;-82
2021/06/05 10:06:27;;;;;;;17.57;15.03;;;18.60;99.90;;;;;;5034308;28;20204;-81
2021/06/05 10:08:54;;;;;;;17.50;15.10;;;18.70;99.90;;;;;;5029164;28;20865;-80
2021/06/05 10:11:31;;;;;;;15.50;13.87;;;18.80;99.90;;;;;;4988919;28;20283;-79
2021/06/05 10:14:16;;;;;;;16.80;14.90;;;18.80;99.90;;;;;;5031493;28;20619;-80
2021/06/05 10:16:50;;;;;;;17.27;15.07;;;19.00;99.90;;;;;;5009371;28;20217;-80
2021/06/05 10:19:41;;;;;;;15.17;13.57;;;19.00;99.90;;;;;;5008618;28;20257;-85
2021/06/05 10:22:09;;;;;;;14.63;13.10;;;19.40;99.90;;;;;;5012179;28;20284;-85
2021/06/05 10:25:22;;;;;;;14.80;12.93;;;19.60;99.90;;;;;;5006692;28;20197;-85
2021/06/05 10:27:49;;;;;;;15.90;12.70;;;19.50;99.90;;;;;;5002761;28;20305;-84
2021/06/05 10:30:28;;;;;;;18.10;13.37;;;19.50;99.90;;;;;;5002041;28;20210;-84
2021/06/05 10:32:59;;;;;;;15.23;13.57;;;19.60;99.90;;;;;;5014298;28;20219;-85
2021/06/05 10:35:34;;;;;;;14.17;12.67;;;19.60;99.90;;;;;;5029512;28;20234;-85
2021/06/05 10:38:25;;;;;;;14.97;12.40;;;19.80;99.90;;;;;;5018408;28;20197;-84
2021/06/05 10:40:52;;;;;;;15.80;12.77;;;19.70;99.90;;;;;;5033338;28;20206;-85
2021/06/05 10:43:23;;;;;;;17.67;13.23;;;19.80;99.90;;;;;;5022632;28;20213;-85
2021/06/05 10:45:51;;;;;;;15.77;13.87;;;19.50;99.90;;;;;;5017328;28;20605;-85
2021/06/05 10:48:41;;;;;;;14.80;12.93;;;19.50;99.90;;;;;;5033575;28;20205;-84
2021/06/05 10:51:13;;;;;;;15.00;13.50;;;19.50;99.90;;;;;;5013869;28;20599;-83
2021/06/05 10:53:59;;;;;;;14.57;13.07;;;19.70;99.90;;;;;;5029737;28;20661;-85
2021/06/05 10:57:21;;;;;;;15.10;12.83;;;20.00;99.90;;;;;;5028807;28;20257;-84
2021/06/05 10:59:53;;;;;;;14.70;11.77;;;20.30;99.90;;;;;;5016422;28;20208;-83
2021/06/05 11:02:41;;;;;;;14.53;12.37;;;20.50;99.90;;;;;;5014672;28;20274;-82
2021/06/05 11:05:24;;;;;;;17.27;12.43;;;20.60;99.90;;;;;;5015190;28;20261;-82
2021/06/05 11:08:12;;;;;;;13.40;12.10;;;20.70;99.90;;;;;;5038726;28;20217;-85
2021/06/05 11:10:45;;;;;;;15.40;12.33;;;20.80;99.90;;;;;;5019786;28;20227;-84
2021/06/05 11:13:32;;;;;;;14.07;11.77;;;20.70;99.90;;;;;;5024601;28;20229;-82
2021/06/05 11:16:21;;;;;;;13.73;12.33;;;20.80;99.90;;;;;;5030575;28;20216;-79
2021/06/05 11:18:54;;;;;;;15.67;13.20;;;20.70;99.90;;;;;;4996090;28;20258;-79
2021/06/05 11:21:25;;;;;;;15.70;13.17;;;20.50;99.90;;;;;;5023787;28;20224;-78
2021/06/05 11:23:58;;;;;;;16.07;14.33;;;20.40;99.90;;;;;;5013262;28;20227;-80
2021/06/05 11:26:37;;;;;;;16.17;13.23;;;20.30;99.90;;;;;;4999940;28;20208;-80
2021/06/05 11:29:26;;;;;;;16.50;14.23;;;20.00;99.90;;;;;;5014923;28;20209;-79
2021/06/05 11:31:59;;;;;;;15.80;14.10;;;20.20;99.90;;;;;;5004738;28;20239;-80
2021/06/05 11:34:29;;;;;;;15.07;13.47;;;20.00;99.90;;;;;;5032079;28;20205;-80
2021/06/05 11:37:13;;;;;;;15.37;13.77;;;20.00;99.90;;;;;;5032369;28;20253;-81
2021/06/05 11:39:51;;;;;;;15.30;13.70;;;20.20;99.90;;;;;;5003375;28;20556;-80
2021/06/05 11:42:24;;;;;;;15.00;13.50;;;20.20;99.90;;;;;;5011200;28;20279;-80
2021/06/05 11:44:58;;;;;;;13.73;12.27;;;20.00;99.90;;;;;;5006754;28;20305;-80
2021/06/05 11:47:27;;;;;;;16.43;14.73;;;20.10;99.90;;;;;;5034139;28;20207;-79
2021/06/05 11:50:18;;;;;;;16.20;14.60;;;20.00;99.90;;;;;;5011697;28;20222;-79
2021/06/05 11:53:23;;;;;;;16.03;14.33;;;20.00;99.90;;;;;;5010871;28;20627;-79
2021/06/05 11:55:55;;;;;;;14.47;12.53;;;20.40;99.90;;;;;;4997020;28;20293;-78
2021/06/05 11:58:22;;;;;;;16.10;14.50;;;20.60;99.90;;;;;;5008879;28;20204;-78
2021/06/05 12:00:59;;;;;;;14.63;13.03;;;20.20;99.90;;;;;;5005586;28;20200;-78
2021/06/05 12:03:55;;;;;;;15.87;13.63;;;20.40;99.90;;;;;;5010053;28;20297;-80
2021/06/05 12:06:31;;;;;;;17.20;12.77;;;20.30;99.90;;;;;;5031855;28;20215;-79
2021/06/05 12:09:14;;;;;;;14.97;13.37;;;20.50;99.90;;;;;;5012473;28;20647;-79
2021/06/05 12:11:46;;;;;;;17.23;14.97;;;20.20;99.90;;;;;;5004027;28;20331;-79
2021/06/05 12:14:54;;;;;;;15.87;13.10;;;20.30;99.90;;;;;;5002945;28;20201;-79
2021/06/05 12:17:36;;;;;;;16.77;14.47;;;20.30;99.90;;;;;;5008403;28;20201;-79
2021/06/05 12:20:08;;;;;;;17.00;14.10;;;20.30;99.90;;;;;;4998859;28;20266;-81
2021/06/05 12:22:37;;;;;;;15.80;13.77;;;20.40;99.90;;;;;;5019534;28;20273;-80
2021/06/05 12:25:20;;;;;;;16.60;14.40;;;20.20;99.90;;;;;;4994874;28;20201;-80
2021/06/05 12:27:48;;;;;;;17.50;14.83;;;19.70;99.90;;;;;;5012094;28;20321;-80
2021/06/05 12:30:40;;;;;;;18.63;14.33;;;19.90;99.90;;;;;;4992333;28;20646;-80
2021/06/05 12:33:09;;;;;;;19.67;14.80;;;20.10;99.90;;;;;;4994412;28;20315;-80
2021/06/05 12:35:45;;;;;;;15.03;12.93;;;20.10;99.90;;;;;;5011930;28;20196;-79
2021/06/05 12:38:27;;;;;;;15.80;13.97;;;20.20;99.90;;;;;;5012259;28;20372;-79
2021/06/05 12:40:58;;;;;;;16.53;14.53;;;20.30;99.90;;;;;;5009285;28;20546;-80
2021/06/05 12:43:30;;;;;;;15.90;13.80;;;20.30;99.90;;;;;;5002763;28;20194;-80
2021/06/05 12:46:00;;;;;;;15.63;13.20;;;20.40;99.90;;;;;;5007470;28;20256;-80
2021/06/05 12:48:28;;;;;;;14.77;13.23;;;20.40;99.90;;;;;;5009382;28;20205;-80
2021/06/05 12:50:58;;;;;;;14.90;12.57;;;20.10;99.90;;;;;;5020624;28;20645;-80
2021/06/05 12:53:30;;;;;;;16.53;13.10;;;20.10;99.90;;;;;;5027669;28;20687;-81